Adams Mills, Ohio
Current Conditions -  °F | °C
As of 1:53 PM on Friday 21 Nov 2014 (Local Time) from KZZV Reporting Station
Clear Clear  
Wind Chill: 19°   Ceiling: Unl
Heat Index: 27°   Visibility: 10mi
Dew Point:   Wind: 7mph
Humidity: 47%   Direction: NA
Pressure: 30.49"   Gusts: NA
Location:  40.1482°N, 82.0354°W
Report Text: KZZV 211853Z AUTO VRB06KT 10SM CLR M03/M13 A3049 RMK AO2 SLP338 T10281128
Loading
Personal Weather Stations






























Interactive Weather Map New forecast layout! Learn more

10-Day Weather Forecast

Advertisements
Track Severe Weather on mobile